sensor_id;sensor_type;location;lat;lon;timestamp;pressure;altitude;pressure_sealevel;temperature;humidity
2563;BME280;1291;51.420;6.970;2023-07-02T00:02:16;99164.31;;;48.20;10.97
2563;BME280;1291;51.420;6.970;2023-07-02T00:04:43;99155.41;;;50.55;9.37
2563;BME280;1291;51.420;6.970;2023-07-02T00:07:09;99161.47;;;49.86;9.72
2563;BME280;1291;51.420;6.970;2023-07-02T00:09:34;99158.38;;;49.34;10.02
2563;BME280;1291;51.420;6.970;2023-07-02T00:11:59;99161.69;;;48.76;10.47
2563;BME280;1291;51.420;6.970;2023-07-02T00:14:24;99170.97;;;48.38;10.85
2563;BME280;1291;51.420;6.970;2023-07-02T00:16:50;99162.50;;;50.16;9.74
2563;BME280;1291;51.420;6.970;2023-07-02T00:19:16;99164.91;;;47.40;10.75
2563;BME280;1291;51.420;6.970;2023-07-02T00:21:42;99171.63;;;48.08;11.16
2563;BME280;1291;51.420;6.970;2023-07-02T00:24:10;99164.09;;;49.39;10.22
2563;BME280;1291;51.420;6.970;2023-07-02T00:26:37;99162.22;;;49.94;9.93
2563;BME280;1291;51.420;6.970;2023-07-02T00:29:03;99161.47;;;49.44;10.17
2563;BME280;1291;51.420;6.970;2023-07-02T00:31:31;99162.34;;;46.93;11.26
2563;BME280;1291;51.420;6.970;2023-07-02T00:33:56;99151.38;;;49.20;10.43
2563;BME280;1291;51.420;6.970;2023-07-02T00:36:21;99161.28;;;47.40;11.14
2563;BME280;1291;51.420;6.970;2023-07-02T00:38:48;99159.66;;;49.80;9.62
2563;BME280;1291;51.420;6.970;2023-07-02T00:41:14;99157.09;;;49.37;10.08
2563;BME280;1291;51.420;6.970;2023-07-02T00:43:40;99166.22;;;47.31;11.44
2563;BME280;1291;51.420;6.970;2023-07-02T00:46:10;99154.09;;;48.27;10.89
2563;BME280;1291;51.420;6.970;2023-07-02T00:48:38;99156.66;;;48.22;10.96
2563;BME280;1291;51.420;6.970;2023-07-02T00:51:04;99149.34;;;49.45;10.07
2563;BME280;1291;51.420;6.970;2023-07-02T00:53:29;99160.47;;;48.72;10.38
2563;BME280;1291;51.420;6.970;2023-07-02T00:55:54;99155.34;;;48.31;10.61
2563;BME280;1291;51.420;6.970;2023-07-02T00:58:20;99154.78;;;48.23;10.70
2563;BME280;1291;51.420;6.970;2023-07-02T01:00:46;99158.88;;;50.86;8.72
2563;BME280;1291;51.420;6.970;2023-07-02T01:03:11;99152.34;;;48.77;10.38
2563;BME280;1291;51.420;6.970;2023-07-02T01:05:37;99143.66;;;49.28;9.83
2563;BME280;1291;51.420;6.970;2023-07-02T01:08:22;99145.44;;;49.65;9.93
2563;BME280;1291;51.420;6.970;2023-07-02T01:10:48;99144.38;;;48.68;10.14
2563;BME280;1291;51.420;6.970;2023-07-02T01:13:19;99145.97;;;49.13;10.02
2563;BME280;1291;51.420;6.970;2023-07-02T01:15:47;99145.56;;;48.36;10.30
2563;BME280;1291;51.420;6.970;2023-07-02T01:18:14;99149.72;;;48.45;10.49
2563;BME280;1291;51.420;6.970;2023-07-02T01:20:42;99139.63;;;48.94;9.94
2563;BME280;1291;51.420;6.970;2023-07-02T01:23:08;99133.19;;;49.19;9.97
2563;BME280;1291;51.420;6.970;2023-07-02T01:25:34;99125.28;;;48.30;10.46
2563;BME280;1291;51.420;6.970;2023-07-02T01:28:02;99121.69;;;46.50;11.63
2563;BME280;1291;51.420;6.970;2023-07-02T01:30:28;99127.31;;;48.60;10.31
2563;BME280;1291;51.420;6.970;2023-07-02T01:32:53;99123.31;;;47.55;10.95
2563;BME280;1291;51.420;6.970;2023-07-02T01:35:18;99128.59;;;47.25;11.25
2563;BME280;1291;51.420;6.970;2023-07-02T01:37:46;99118.81;;;48.43;10.23
2563;BME280;1291;51.420;6.970;2023-07-02T01:40:12;99132.97;;;48.21;10.32
2563;BME280;1291;51.420;6.970;2023-07-02T01:42:37;99142.66;;;48.30;10.17
2563;BME280;1291;51.420;6.970;2023-07-02T01:45:03;99151.84;;;48.43;10.13
2563;BME280;1291;51.420;6.970;2023-07-02T01:47:31;99157.06;;;48.33;10.19
2563;BME280;1291;51.420;6.970;2023-07-02T01:49:57;99160.94;;;48.18;10.43
2563;BME280;1291;51.420;6.970;2023-07-02T01:52:22;99155.63;;;47.28;11.09
2563;BME280;1291;51.420;6.970;2023-07-02T01:54:47;99166.09;;;48.58;10.43
2563;BME280;1291;51.420;6.970;2023-07-02T01:57:13;99161.47;;;48.08;10.34
2563;BME280;1291;51.420;6.970;2023-07-02T01:59:38;99154.47;;;47.04;10.95
2563;BME280;1291;51.420;6.970;2023-07-02T02:02:03;99160.56;;;46.14;11.55
2563;BME280;1291;51.420;6.970;2023-07-02T02:04:29;99156.72;;;48.66;9.92
2563;BME280;1291;51.420;6.970;2023-07-02T02:06:55;99169.03;;;47.88;10.11
2563;BME280;1291;51.420;6.970;2023-07-02T02:09:21;99159.22;;;47.99;10.27
2563;BME280;1291;51.420;6.970;2023-07-02T02:11:48;99165.31;;;46.79;10.83
2563;BME280;1291;51.420;6.970;2023-07-02T02:14:14;99174.00;;;48.29;9.90
2563;BME280;1291;51.420;6.970;2023-07-02T02:16:39;99167.84;;;48.27;9.86
2563;BME280;1291;51.420;6.970;2023-07-02T02:19:05;99174.84;;;48.30;9.82
2563;BME280;1291;51.420;6.970;2023-07-02T02:21:31;99171.38;;;48.60;9.68
2563;BME280;1291;51.420;6.970;2023-07-02T02:23:56;99176.22;;;47.57;10.30
2563;BME280;1291;51.420;6.970;2023-07-02T02:26:28;99179.28;;;44.46;12.13
2563;BME280;1291;51.420;6.970;2023-07-02T02:28:53;99178.13;;;47.88;10.13
2563;BME280;1291;51.420;6.970;2023-07-02T02:31:22;99175.72;;;46.50;10.93
2563;BME280;1291;51.420;6.970;2023-07-02T02:33:47;99171.75;;;47.63;10.13
2563;BME280;1291;51.420;6.970;2023-07-02T02:36:16;99172.78;;;46.31;11.22
2563;BME280;1291;51.420;6.970;2023-07-02T02:38:42;99176.81;;;47.66;10.15
2563;BME280;1291;51.420;6.970;2023-07-02T02:41:07;99181.00;;;48.00;10.02
2563;BME280;1291;51.420;6.970;2023-07-02T02:43:33;99181.69;;;48.64;9.64
2563;BME280;1291;51.420;6.970;2023-07-02T02:45:59;99178.84;;;48.09;9.73
2563;BME280;1291;51.420;6.970;2023-07-02T02:48:24;99188.81;;;46.68;10.90
2563;BME280;1291;51.420;6.970;2023-07-02T02:50:50;99170.66;;;46.53;10.88
2563;BME280;1291;51.420;6.970;2023-07-02T02:53:15;99176.56;;;45.84;11.49
2563;BME280;1291;51.420;6.970;2023-07-02T02:55:41;99167.09;;;46.20;10.96
2563;BME280;1291;51.420;6.970;2023-07-02T02:58:06;99178.56;;;48.42;9.65
2563;BME280;1291;51.420;6.970;2023-07-02T03:00:31;99179.53;;;46.22;10.58
2563;BME280;1291;51.420;6.970;2023-07-02T03:02:58;99171.16;;;45.42;11.82
2563;BME280;1291;51.420;6.970;2023-07-02T03:05:26;99165.78;;;48.23;9.86
2563;BME280;1291;51.420;6.970;2023-07-02T03:07:52;99176.50;;;46.90;10.49
2563;BME280;1291;51.420;6.970;2023-07-02T03:10:20;99174.50;;;47.63;9.86
2563;BME280;1291;51.420;6.970;2023-07-02T03:12:47;99179.41;;;47.09;10.51
2563;BME280;1291;51.420;6.970;2023-07-02T03:15:12;99184.06;;;49.65;9.13
2563;BME280;1291;51.420;6.970;2023-07-02T03:17:38;99197.66;;;48.81;9.23
2563;BME280;1291;51.420;6.970;2023-07-02T03:20:03;99193.78;;;47.88;9.89
2563;BME280;1291;51.420;6.970;2023-07-02T03:22:29;99191.19;;;46.44;10.66
2563;BME280;1291;51.420;6.970;2023-07-02T03:24:55;99202.88;;;45.65;11.34
2563;BME280;1291;51.420;6.970;2023-07-02T03:27:20;99196.25;;;45.32;12.04
2563;BME280;1291;51.420;6.970;2023-07-02T03:29:45;99193.16;;;47.02;10.65
2563;BME280;1291;51.420;6.970;2023-07-02T03:32:14;99195.72;;;46.97;10.38
2563;BME280;1291;51.420;6.970;2023-07-02T03:34:39;99194.34;;;46.34;11.11
2563;BME280;1291;51.420;6.970;2023-07-02T03:37:04;99207.88;;;47.28;10.39
2563;BME280;1291;51.420;6.970;2023-07-02T03:39:33;99209.75;;;46.09;11.01
2563;BME280;1291;51.420;6.970;2023-07-02T03:41:58;99211.03;;;47.31;10.32
2563;BME280;1291;51.420;6.970;2023-07-02T03:44:23;99214.38;;;47.40;10.38
2563;BME280;1291;51.420;6.970;2023-07-02T03:46:49;99208.13;;;47.65;10.12
2563;BME280;1291;51.420;6.970;2023-07-02T03:49:14;99217.03;;;44.85;11.74
2563;BME280;1291;51.420;6.970;2023-07-02T03:51:40;99211.41;;;46.63;10.56
2563;BME280;1291;51.420;6.970;2023-07-02T03:54:05;99227.56;;;43.31;13.25
2563;BME280;1291;51.420;6.970;2023-07-02T03:56:30;99218.84;;;47.73;10.15
2563;BME280;1291;51.420;6.970;2023-07-02T03:58:56;99227.56;;;45.65;11.30
2563;BME280;1291;51.420;6.970;2023-07-02T04:01:24;99233.03;;;47.31;10.18
2563;BME280;1291;51.420;6.970;2023-07-02T04:03:52;99232.75;;;46.21;11.01
2563;BME280;1291;51.420;6.970;2023-07-02T04:06:17;99231.72;;;46.49;10.85
2563;BME280;1291;51.420;6.970;2023-07-02T04:08:43;99230.78;;;47.53;10.42
2563;BME280;1291;51.420;6.970;2023-07-02T04:11:10;99240.78;;;46.49;11.05
2563;BME280;1291;51.420;6.970;2023-07-02T04:13:38;99244.13;;;46.71;10.96
2563;BME280;1291;51.420;6.970;2023-07-02T04:16:04;99247.28;;;45.33;11.55
2563;BME280;1291;51.420;6.970;2023-07-02T04:18:33;99244.97;;;46.92;10.91
2563;BME280;1291;51.420;6.970;2023-07-02T04:21:02;99254.28;;;46.37;10.74
2563;BME280;1291;51.420;6.970;2023-07-02T04:23:28;99263.53;;;44.72;12.40
2563;BME280;1291;51.420;6.970;2023-07-02T04:25:53;99270.91;;;43.85;12.86
2563;BME280;1291;51.420;6.970;2023-07-02T04:28:18;99246.53;;;48.17;10.17
2563;BME280;1291;51.420;6.970;2023-07-02T04:30:44;99260.38;;;47.65;9.86
2563;BME280;1291;51.420;6.970;2023-07-02T04:33:09;99266.06;;;47.18;10.54
2563;BME280;1291;51.420;6.970;2023-07-02T04:35:39;99256.72;;;49.28;9.37
2563;BME280;1291;51.420;6.970;2023-07-02T04:38:05;99266.41;;;45.75;11.75
2563;BME280;1291;51.420;6.970;2023-07-02T04:40:30;99267.66;;;49.17;9.19
2563;BME280;1291;51.420;6.970;2023-07-02T04:42:55;99268.53;;;45.73;11.54
2563;BME280;1291;51.420;6.970;2023-07-02T04:45:24;99279.78;;;45.36;11.88
2563;BME280;1291;51.420;6.970;2023-07-02T04:47:50;99278.16;;;48.83;9.37
2563;BME280;1291;51.420;6.970;2023-07-02T04:50:16;99280.53;;;47.59;10.08
2563;BME280;1291;51.420;6.970;2023-07-02T04:52:41;99279.47;;;49.42;8.87
2563;BME280;1291;51.420;6.970;2023-07-02T04:55:07;99278.00;;;47.44;10.39
2563;BME280;1291;51.420;6.970;2023-07-02T04:57:32;99281.25;;;45.94;11.43
2563;BME280;1291;51.420;6.970;2023-07-02T04:59:58;99280.72;;;48.34;10.09
2563;BME280;1291;51.420;6.970;2023-07-02T05:02:23;99284.69;;;48.63;9.83
2563;BME280;1291;51.420;6.970;2023-07-02T05:04:51;99284.09;;;48.04;9.88
2563;BME280;1291;51.420;6.970;2023-07-02T05:07:16;99282.69;;;47.88;10.14
2563;BME280;1291;51.420;6.970;2023-07-02T05:09:42;99285.25;;;47.31;10.44
2563;BME280;1291;51.420;6.970;2023-07-02T05:12:10;99295.53;;;47.49;10.68
2563;BME280;1291;51.420;6.970;2023-07-02T05:14:35;99287.91;;;46.53;10.99
2563;BME280;1291;51.420;6.970;2023-07-02T05:17:01;99291.78;;;47.89;10.40
2563;BME280;1291;51.420;6.970;2023-07-02T05:19:26;99297.59;;;46.69;10.84
2563;BME280;1291;51.420;6.970;2023-07-02T05:21:51;99297.56;;;46.22;11.34
2563;BME280;1291;51.420;6.970;2023-07-02T05:24:17;99296.63;;;48.82;9.44
2563;BME280;1291;51.420;6.970;2023-07-02T05:26:42;99288.09;;;47.63;10.08
2563;BME280;1291;51.420;6.970;2023-07-02T05:29:07;99303.28;;;45.24;11.55
2563;BME280;1291;51.420;6.970;2023-07-02T05:31:33;99303.34;;;43.88;13.16
2563;BME280;1291;51.420;6.970;2023-07-02T05:33:59;99299.75;;;48.36;10.02
2563;BME280;1291;51.420;6.970;2023-07-02T05:36:24;99309.06;;;48.66;9.93
2563;BME280;1291;51.420;6.970;2023-07-02T05:38:52;99309.41;;;46.29;11.28
2563;BME280;1291;51.420;6.970;2023-07-02T05:41:19;99301.59;;;46.40;11.44
2563;BME280;1291;51.420;6.970;2023-07-02T05:43:44;99313.72;;;47.64;10.46
2563;BME280;1291;51.420;6.970;2023-07-02T05:46:10;99313.38;;;46.07;11.70
2563;BME280;1291;51.420;6.970;2023-07-02T05:48:37;99314.25;;;46.27;11.48
2563;BME280;1291;51.420;6.970;2023-07-02T05:51:02;99316.69;;;47.56;10.58
2563;BME280;1291;51.420;6.970;2023-07-02T05:53:31;99322.03;;;45.20;11.93
2563;BME280;1291;51.420;6.970;2023-07-02T05:55:56;99327.31;;;46.18;11.66
2563;BME280;1291;51.420;6.970;2023-07-02T05:58:21;99335.81;;;45.34;12.08
2563;BME280;1291;51.420;6.970;2023-07-02T06:00:50;99331.09;;;48.03;10.12
2563;BME280;1291;51.420;6.970;2023-07-02T06:03:16;99332.25;;;45.75;11.71
2563;BME280;1291;51.420;6.970;2023-07-02T06:05:46;99338.34;;;46.39;10.79
2563;BME280;1291;51.420;6.970;2023-07-02T06:08:12;99336.97;;;48.13;9.94
2563;BME280;1291;51.420;6.970;2023-07-02T06:10:37;99335.50;;;48.74;9.71
2563;BME280;1291;51.420;6.970;2023-07-02T06:13:03;99339.34;;;49.17;9.41
2563;BME280;1291;51.420;6.970;2023-07-02T06:15:28;99340.00;;;47.46;10.58
2563;BME280;1291;51.420;6.970;2023-07-02T06:17:53;99343.53;;;47.53;10.42
2563;BME280;1291;51.420;6.970;2023-07-02T06:20:19;99343.88;;;46.65;11.20
2563;BME280;1291;51.420;6.970;2023-07-02T06:22:44;99341.81;;;49.62;9.22
2563;BME280;1291;51.420;6.970;2023-07-02T06:25:09;99346.88;;;48.53;9.75
2563;BME280;1291;51.420;6.970;2023-07-02T06:27:35;99344.50;;;50.17;9.07
2563;BME280;1291;51.420;6.970;2023-07-02T06:30:00;99350.03;;;45.86;10.71
2563;BME280;1291;51.420;6.970;2023-07-02T06:32:25;99353.41;;;45.94;11.28
2563;BME280;1291;51.420;6.970;2023-07-02T06:34:50;99362.16;;;44.35;11.21
2563;BME280;1291;51.420;6.970;2023-07-02T06:37:16;99361.19;;;43.70;11.65
2563;BME280;1291;51.420;6.970;2023-07-02T06:39:41;99342.97;;;46.38;9.51
2563;BME280;1291;51.420;6.970;2023-07-02T06:42:07;99348.38;;;44.07;11.10
2563;BME280;1291;51.420;6.970;2023-07-02T06:44:32;99345.94;;;47.30;8.94
2563;BME280;1291;51.420;6.970;2023-07-02T06:46:57;99352.81;;;43.72;10.65
2563;BME280;1291;51.420;6.970;2023-07-02T06:49:23;99366.16;;;44.97;9.47
2563;BME280;1291;51.420;6.970;2023-07-02T06:51:48;99374.13;;;39.88;13.57
2563;BME280;1291;51.420;6.970;2023-07-02T06:54:13;99374.06;;;39.80;13.19
2563;BME280;1291;51.420;6.970;2023-07-02T06:56:39;99366.72;;;45.21;10.18
2563;BME280;1291;51.420;6.970;2023-07-02T06:59:04;99375.66;;;39.56;12.40
2563;BME280;1291;51.420;6.970;2023-07-02T07:01:29;99357.59;;;46.79;8.82
2563;BME280;1291;51.420;6.970;2023-07-02T07:03:54;99372.75;;;43.57;10.46
2563;BME280;1291;51.420;6.970;2023-07-02T07:06:20;99371.75;;;47.15;8.79
2563;BME280;1291;51.420;6.970;2023-07-02T07:08:45;99377.47;;;43.63;10.92
2563;BME280;1291;51.420;6.970;2023-07-02T07:11:10;99377.44;;;42.03;11.70
2563;BME280;1291;51.420;6.970;2023-07-02T07:13:39;99385.63;;;43.72;10.75
2563;BME280;1291;51.420;6.970;2023-07-02T07:16:04;99387.47;;;41.72;11.75
2563;BME280;1291;51.420;6.970;2023-07-02T07:18:30;99377.47;;;43.34;11.02
2563;BME280;1291;51.420;6.970;2023-07-02T07:20:55;99377.41;;;45.09;9.47
2563;BME280;1291;51.420;6.970;2023-07-02T07:23:21;99391.50;;;41.84;12.14
2563;BME280;1291;51.420;6.970;2023-07-02T07:25:46;99383.38;;;43.97;10.73
2563;BME280;1291;51.420;6.970;2023-07-02T07:28:11;99387.66;;;44.57;10.07
2563;BME280;1291;51.420;6.970;2023-07-02T07:30:43;99391.44;;;41.92;11.63
2563;BME280;1291;51.420;6.970;2023-07-02T07:33:10;99391.03;;;43.87;10.34
2563;BME280;1291;51.420;6.970;2023-07-02T07:35:35;99399.94;;;44.25;10.16
2563;BME280;1291;51.420;6.970;2023-07-02T07:38:00;99409.25;;;44.67;9.78
2563;BME280;1291;51.420;6.970;2023-07-02T07:40:26;99393.88;;;43.34;10.55
2563;BME280;1291;51.420;6.970;2023-07-02T07:42:51;99403.16;;;41.53;11.77
2563;BME280;1291;51.420;6.970;2023-07-02T07:45:16;99393.13;;;48.05;8.07
2563;BME280;1291;51.420;6.970;2023-07-02T07:47:42;99388.66;;;46.59;8.35
2563;BME280;1291;51.420;6.970;2023-07-02T07:50:07;99400.31;;;46.00;9.09
2563;BME280;1291;51.420;6.970;2023-07-02T07:52:39;99397.41;;;45.38;9.35
2563;BME280;1291;51.420;6.970;2023-07-02T07:55:06;99407.94;;;42.84;10.49
2563;BME280;1291;51.420;6.970;2023-07-02T07:57:32;99405.78;;;39.71;12.03
2563;BME280;1291;51.420;6.970;2023-07-02T07:59:57;99406.94;;;42.85;9.80
2563;BME280;1291;51.420;6.970;2023-07-02T08:02:25;99405.81;;;44.58;8.99
2563;BME280;1291;51.420;6.970;2023-07-02T08:04:51;99413.22;;;46.94;7.85
2563;BME280;1291;51.420;6.970;2023-07-02T08:07:16;99424.22;;;40.36;11.57
2563;BME280;1291;51.420;6.970;2023-07-02T08:09:42;99407.59;;;46.27;7.89
2563;BME280;1291;51.420;6.970;2023-07-02T08:12:07;99424.59;;;43.65;9.43
2563;BME280;1291;51.420;6.970;2023-07-02T08:14:33;99420.03;;;42.67;10.18
2563;BME280;1291;51.420;6.970;2023-07-02T08:17:03;99429.34;;;42.18;10.42
2563;BME280;1291;51.420;6.970;2023-07-02T08:19:28;99426.44;;;41.80;10.42
2563;BME280;1291;51.420;6.970;2023-07-02T08:21:54;99432.28;;;45.79;8.50
2563;BME280;1291;51.420;6.970;2023-07-02T08:24:19;99442.59;;;42.61;10.22
2563;BME280;1291;51.420;6.970;2023-07-02T08:26:44;99438.75;;;44.14;9.28
2563;BME280;1291;51.420;6.970;2023-07-02T08:29:10;99445.19;;;43.23;9.96
2563;BME280;1291;51.420;6.970;2023-07-02T08:31:36;99444.66;;;42.59;10.05
2563;BME280;1291;51.420;6.970;2023-07-02T08:34:01;99442.00;;;42.97;9.77
2563;BME280;1291;51.420;6.970;2023-07-02T08:36:26;99442.38;;;44.72;8.24
2563;BME280;1291;51.420;6.970;2023-07-02T08:38:51;99457.28;;;42.20;10.20
2563;BME280;1291;51.420;6.970;2023-07-02T08:41:17;99442.03;;;43.50;8.72
2563;BME280;1291;51.420;6.970;2023-07-02T08:43:45;99442.84;;;44.76;8.52
2563;BME280;1291;51.420;6.970;2023-07-02T08:46:11;99450.69;;;41.18;10.22
2563;BME280;1291;51.420;6.970;2023-07-02T08:48:37;99445.47;;;42.36;9.82
2563;BME280;1291;51.420;6.970;2023-07-02T08:51:02;99453.25;;;40.27;10.84
2563;BME280;1291;51.420;6.970;2023-07-02T08:53:28;99448.75;;;43.24;8.85
2563;BME280;1291;51.420;6.970;2023-07-02T08:55:59;99445.25;;;43.15;9.73
2563;BME280;1291;51.420;6.970;2023-07-02T08:58:25;99449.25;;;43.95;8.80
2563;BME280;1291;51.420;6.970;2023-07-02T09:01:07;99441.72;;;44.49;8.96
2563;BME280;1291;51.420;6.970;2023-07-02T09:03:33;99444.13;;;42.86;9.50
2563;BME280;1291;51.420;6.970;2023-07-02T09:05:59;99464.06;;;40.45;10.83
2563;BME280;1291;51.420;6.970;2023-07-02T09:08:25;99466.63;;;43.50;9.08
2563;BME280;1291;51.420;6.970;2023-07-02T09:10:51;99457.16;;;42.76;9.41
2563;BME280;1291;51.420;6.970;2023-07-02T09:13:16;99462.03;;;43.95;8.85
2563;BME280;1291;51.420;6.970;2023-07-02T09:15:42;99471.59;;;40.68;10.48
2563;BME280;1291;51.420;6.970;2023-07-02T09:18:20;99460.78;;;43.38;9.17
2563;BME280;1291;51.420;6.970;2023-07-02T09:20:46;99463.91;;;43.50;8.78
2563;BME280;1291;51.420;6.970;2023-07-02T09:23:12;99455.66;;;43.88;8.85
2563;BME280;1291;51.420;6.970;2023-07-02T09:25:38;99472.66;;;41.00;10.61
2563;BME280;1291;51.420;6.970;2023-07-02T09:28:22;99451.41;;;47.96;7.14
2563;BME280;1291;51.420;6.970;2023-07-02T09:30:57;99452.56;;;47.28;7.40
2563;BME280;1291;51.420;6.970;2023-07-02T09:33:24;99466.38;;;42.75;9.57
2563;BME280;1291;51.420;6.970;2023-07-02T09:35:50;99454.84;;;43.34;9.79
2563;BME280;1291;51.420;6.970;2023-07-02T09:38:17;99455.28;;;46.13;8.22
2563;BME280;1291;51.420;6.970;2023-07-02T09:40:49;99463.50;;;41.09;11.02
2563;BME280;1291;51.420;6.970;2023-07-02T09:43:16;99449.31;;;44.90;9.02
2563;BME280;1291;51.420;6.970;2023-07-02T09:45:50;99462.66;;;41.25;10.97
2563;BME280;1291;51.420;6.970;2023-07-02T09:48:16;99459.75;;;43.54;9.21
2563;BME280;1291;51.420;6.970;2023-07-02T09:50:47;99464.91;;;40.46;11.42
2563;BME280;1291;51.420;6.970;2023-07-02T09:53:12;99457.09;;;43.45;9.46
2563;BME280;1291;51.420;6.970;2023-07-02T09:55:38;99458.59;;;46.63;7.92
2563;BME280;1291;51.420;6.970;2023-07-02T09:58:04;99462.94;;;43.04;10.06
2563;BME280;1291;51.420;6.970;2023-07-02T10:00:30;99471.19;;;43.87;9.28
2563;BME280;1291;51.420;6.970;2023-07-02T10:02:55;99462.97;;;43.19;9.59
2563;BME280;1291;51.420;6.970;2023-07-02T10:05:33;99473.72;;;43.21;9.74
2563;BME280;1291;51.420;6.970;2023-07-02T10:08:11;99477.97;;;44.51;8.85
2563;BME280;1291;51.420;6.970;2023-07-02T10:10:38;99473.00;;;44.61;8.75
2563;BME280;1291;51.420;6.970;2023-07-02T10:13:04;99480.81;;;46.68;8.14
2563;BME280;1291;51.420;6.970;2023-07-02T10:15:30;99482.72;;;44.27;9.15
2563;BME280;1291;51.420;6.970;2023-07-02T10:20:40;99490.09;;;42.43;10.07
2563;BME280;1291;51.420;6.970;2023-07-02T10:23:08;99503.00;;;41.21;10.86
2563;BME280;1291;51.420;6.970;2023-07-02T10:25:34;99498.19;;;43.14;9.84
2563;BME280;1291;51.420;6.970;2023-07-02T10:28:21;99500.81;;;43.69;9.63
2563;BME280;1291;51.420;6.970;2023-07-02T10:30:49;99488.97;;;43.15;9.50
2563;BME280;1291;51.420;6.970;2023-07-02T10:33:16;99481.19;;;46.65;7.50
2563;BME280;1291;51.420;6.970;2023-07-02T10:35:44;99482.50;;;46.76;7.81
2563;BME280;1291;51.420;6.970;2023-07-02T10:38:19;99494.78;;;41.46;10.46
2563;BME280;1291;51.420;6.970;2023-07-02T10:40:45;99491.63;;;43.23;8.81
2563;BME280;1291;51.420;6.970;2023-07-02T10:43:11;99484.56;;;42.20;9.00
2563;BME280;1291;51.420;6.970;2023-07-02T10:45:36;99485.13;;;43.62;8.76
2563;BME280;1291;51.420;6.970;2023-07-02T10:48:08;99478.13;;;43.45;8.94
2563;BME280;1291;51.420;6.970;2023-07-02T10:50:34;99486.31;;;41.41;10.17
2563;BME280;1291;51.420;6.970;2023-07-02T10:52:59;99473.94;;;44.02;8.37
2563;BME280;1291;51.420;6.970;2023-07-02T10:55:26;99484.13;;;43.93;8.69
2563;BME280;1291;51.420;6.970;2023-07-02T10:58:07;99483.78;;;47.80;6.93
2563;BME280;1291;51.420;6.970;2023-07-02T11:00:43;99490.84;;;43.38;8.97
2563;BME280;1291;51.420;6.970;2023-07-02T11:03:25;99487.19;;;43.22;9.32
2563;BME280;1291;51.420;6.970;2023-07-02T11:05:51;99489.13;;;44.34;8.72
2563;BME280;1291;51.420;6.970;2023-07-02T11:08:17;99492.34;;;42.71;9.26
2563;BME280;1291;51.420;6.970;2023-07-02T11:10:42;99490.13;;;43.59;9.36
2563;BME280;1291;51.420;6.970;2023-07-02T11:13:15;99495.38;;;43.45;9.04
2563;BME280;1291;51.420;6.970;2023-07-02T11:15:41;99485.16;;;48.29;7.02
2563;BME280;1291;51.420;6.970;2023-07-02T11:18:15;99493.06;;;43.87;9.10
2563;BME280;1291;51.420;6.970;2023-07-02T11:20:43;99490.31;;;45.05;9.09
2563;BME280;1291;51.420;6.970;2023-07-02T11:23:24;99488.38;;;48.13;7.42
2563;BME280;1291;51.420;6.970;2023-07-02T11:25:59;99503.19;;;45.04;8.45
2563;BME280;1291;51.420;6.970;2023-07-02T11:28:26;99497.53;;;44.18;9.38
2563;BME280;1291;51.420;6.970;2023-07-02T11:30:52;99497.09;;;43.61;9.25
2563;BME280;1291;51.420;6.970;2023-07-02T11:33:17;99487.56;;;43.19;9.00
2563;BME280;1291;51.420;6.970;2023-07-02T11:35:43;99489.66;;;42.63;9.38
2563;BME280;1291;51.420;6.970;2023-07-02T11:38:09;99492.56;;;44.58;8.31
2563;BME280;1291;51.420;6.970;2023-07-02T11:40:36;99502.09;;;42.97;9.75
2563;BME280;1291;51.420;6.970;2023-07-02T11:43:05;99498.13;;;44.65;8.90
2563;BME280;1291;51.420;6.970;2023-07-02T11:45:31;99501.50;;;45.81;7.84
2563;BME280;1291;51.420;6.970;2023-07-02T11:47:59;99495.16;;;43.85;9.11
2563;BME280;1291;51.420;6.970;2023-07-02T11:50:24;99490.94;;;42.44;9.30
2563;BME280;1291;51.420;6.970;2023-07-02T11:52:49;99493.78;;;47.68;6.63
2563;BME280;1291;51.420;6.970;2023-07-02T11:55:15;99485.72;;;45.05;7.80
2563;BME280;1291;51.420;6.970;2023-07-02T11:57:40;99487.84;;;47.18;6.71
2563;BME280;1291;51.420;6.970;2023-07-02T12:00:06;99488.72;;;46.36;7.08
2563;BME280;1291;51.420;6.970;2023-07-02T12:02:31;99496.81;;;46.51;6.87
2563;BME280;1291;51.420;6.970;2023-07-02T12:04:57;99493.69;;;45.07;7.56
2563;BME280;1291;51.420;6.970;2023-07-02T12:07:22;99500.16;;;42.43;8.72
2563;BME280;1291;51.420;6.970;2023-07-02T12:09:47;99495.63;;;43.89;8.06
2563;BME280;1291;51.420;6.970;2023-07-02T12:12:19;99503.03;;;42.58;8.70
2563;BME280;1291;51.420;6.970;2023-07-02T12:14:44;99507.56;;;42.26;8.95
2563;BME280;1291;51.420;6.970;2023-07-02T12:17:10;99506.00;;;42.71;9.11
2563;BME280;1291;51.420;6.970;2023-07-02T12:19:41;99506.63;;;45.91;7.51
2563;BME280;1291;51.420;6.970;2023-07-02T12:22:06;99507.41;;;41.47;9.31
2563;BME280;1291;51.420;6.970;2023-07-02T12:24:32;99510.56;;;46.16;6.90
2563;BME280;1291;51.420;6.970;2023-07-02T12:26:57;99515.94;;;45.96;7.21
2563;BME280;1291;51.420;6.970;2023-07-02T12:29:23;99516.66;;;45.77;7.50
2563;BME280;1291;51.420;6.970;2023-07-02T12:31:51;99510.25;;;47.08;6.66
2563;BME280;1291;51.420;6.970;2023-07-02T12:34:16;99516.75;;;45.34;7.45
2563;BME280;1291;51.420;6.970;2023-07-02T12:36:44;99506.72;;;46.04;7.42
2563;BME280;1291;51.420;6.970;2023-07-02T12:39:10;99506.97;;;48.69;6.36
2563;BME280;1291;51.420;6.970;2023-07-02T12:41:35;99509.50;;;48.26;6.57
2563;BME280;1291;51.420;6.970;2023-07-02T12:44:01;99508.31;;;45.35;7.78
2563;BME280;1291;51.420;6.970;2023-07-02T12:46:26;99496.47;;;48.92;5.83
2563;BME280;1291;51.420;6.970;2023-07-02T12:48:51;99501.03;;;44.99;8.58
2563;BME280;1291;51.420;6.970;2023-07-02T12:51:20;99500.38;;;45.69;7.65
2563;BME280;1291;51.420;6.970;2023-07-02T12:53:45;99500.72;;;47.97;6.87
2563;BME280;1291;51.420;6.970;2023-07-02T12:56:10;99505.69;;;48.20;6.76
2563;BME280;1291;51.420;6.970;2023-07-02T12:58:35;99501.03;;;49.04;6.28
2563;BME280;1291;51.420;6.970;2023-07-02T13:01:01;99513.88;;;47.68;6.31
2563;BME280;1291;51.420;6.970;2023-07-02T13:03:26;99518.75;;;44.82;8.44
2563;BME280;1291;51.420;6.970;2023-07-02T13:05:51;99518.63;;;45.12;8.01
2563;BME280;1291;51.420;6.970;2023-07-02T13:08:17;99514.25;;;43.55;9.03
2563;BME280;1291;51.420;6.970;2023-07-02T13:10:43;99527.00;;;40.50;10.45
2563;BME280;1291;51.420;6.970;2023-07-02T13:13:08;99523.41;;;45.25;8.14
2563;BME280;1291;51.420;6.970;2023-07-02T13:15:34;99518.03;;;43.54;9.42
2563;BME280;1291;51.420;6.970;2023-07-02T13:18:03;99518.38;;;45.07;8.17
2563;BME280;1291;51.420;6.970;2023-07-02T13:20:29;99524.31;;;45.10;8.47
2563;BME280;1291;51.420;6.970;2023-07-02T13:22:54;99518.00;;;45.88;7.86
2563;BME280;1291;51.420;6.970;2023-07-02T13:25:20;99526.75;;;45.70;7.93
2563;BME280;1291;51.420;6.970;2023-07-02T13:27:45;99519.13;;;43.45;9.29